sensor_id;sensor_type;location;lat;lon;timestamp;temperature;humidity
46720;DHT22;32452;51.382;-0.002;2023-02-28T00:01:50;4.20;79.40
46720;DHT22;32452;51.382;-0.002;2023-02-28T00:04:36;4.20;79.80
46720;DHT22;32452;51.382;-0.002;2023-02-28T00:07:21;4.20;80.10
46720;DHT22;32452;51.382;-0.002;2023-02-28T00:10:10;4.20;80.30
46720;DHT22;32452;51.382;-0.002;2023-02-28T00:13:03;4.10;80.50
46720;DHT22;32452;51.382;-0.002;2023-02-28T00:16:00;4.10;80.80
46720;DHT22;32452;51.382;-0.002;2023-02-28T00:18:46;4.00;81.00
46720;DHT22;32452;51.382;-0.002;2023-02-28T00:21:34;4.00;81.30
46720;DHT22;32452;51.382;-0.002;2023-02-28T00:24:20;4.00;81.60
46720;DHT22;32452;51.382;-0.002;2023-02-28T00:27:06;3.90;81.80
46720;DHT22;32452;51.382;-0.002;2023-02-28T00:29:51;3.90;82.80
46720;DHT22;32452;51.382;-0.002;2023-02-28T00:32:39;3.90;82.30
46720;DHT22;32452;51.382;-0.002;2023-02-28T00:35:25;3.80;82.50
46720;DHT22;32452;51.382;-0.002;2023-02-28T00:38:11;3.80;82.80
46720;DHT22;32452;51.382;-0.002;2023-02-28T00:40:56;3.80;83.20
46720;DHT22;32452;51.382;-0.002;2023-02-28T00:43:42;3.70;83.50
46720;DHT22;32452;51.382;-0.002;2023-02-28T00:46:28;3.70;83.80
46720;DHT22;32452;51.382;-0.002;2023-02-28T00:49:13;3.70;84.20
46720;DHT22;32452;51.382;-0.002;2023-02-28T00:51:59;3.70;84.50
46720;DHT22;32452;51.382;-0.002;2023-02-28T00:54:44;3.60;84.70
46720;DHT22;32452;51.382;-0.002;2023-02-28T00:57:30;3.60;85.00
46720;DHT22;32452;51.382;-0.002;2023-02-28T01:00:16;3.60;85.30
46720;DHT22;32452;51.382;-0.002;2023-02-28T01:03:01;3.60;85.50
46720;DHT22;32452;51.382;-0.002;2023-02-28T01:05:47;3.50;85.80
46720;DHT22;32452;51.382;-0.002;2023-02-28T01:08:33;3.50;86.10
46720;DHT22;32452;51.382;-0.002;2023-02-28T01:11:18;3.50;87.10
46720;DHT22;32452;51.382;-0.002;2023-02-28T01:14:04;3.40;86.60
46720;DHT22;32452;51.382;-0.002;2023-02-28T01:16:50;3.40;86.90
46720;DHT22;32452;51.382;-0.002;2023-02-28T01:19:36;3.40;87.20
46720;DHT22;32452;51.382;-0.002;2023-02-28T01:22:22;3.40;87.50
46720;DHT22;32452;51.382;-0.002;2023-02-28T01:25:08;3.30;87.80
46720;DHT22;32452;51.382;-0.002;2023-02-28T01:27:53;3.30;88.00
46720;DHT22;32452;51.382;-0.002;2023-02-28T01:30:39;3.30;88.30
46720;DHT22;32452;51.382;-0.002;2023-02-28T01:33:25;3.20;88.40
46720;DHT22;32452;51.382;-0.002;2023-02-28T01:36:13;3.20;88.70
46720;DHT22;32452;51.382;-0.002;2023-02-28T01:38:59;3.10;88.90
46720;DHT22;32452;51.382;-0.002;2023-02-28T01:41:45;3.10;89.10
46720;DHT22;32452;51.382;-0.002;2023-02-28T01:44:57;3.10;89.40
46720;DHT22;32452;51.382;-0.002;2023-02-28T01:47:44;3.10;89.50
46720;DHT22;32452;51.382;-0.002;2023-02-28T01:50:35;3.10;89.60
46720;DHT22;32452;51.382;-0.002;2023-02-28T01:53:27;3.10;89.80
46720;DHT22;32452;51.382;-0.002;2023-02-28T01:56:20;3.00;90.00
46720;DHT22;32452;51.382;-0.002;2023-02-28T01:59:06;3.00;90.10
46720;DHT22;32452;51.382;-0.002;2023-02-28T02:01:53;3.00;90.20
46720;DHT22;32452;51.382;-0.002;2023-02-28T02:04:45;3.00;90.30
46720;DHT22;32452;51.382;-0.002;2023-02-28T02:07:37;2.90;90.30
46720;DHT22;32452;51.382;-0.002;2023-02-28T02:10:44;2.90;90.40
46720;DHT22;32452;51.382;-0.002;2023-02-28T02:17:12;2.80;90.40
46720;DHT22;32452;51.382;-0.002;2023-02-28T02:23:32;2.70;90.60
46720;DHT22;32452;51.382;-0.002;2023-02-28T02:26:33;2.70;90.70
46720;DHT22;32452;51.382;-0.002;2023-02-28T02:32:28;2.70;90.90
46720;DHT22;32452;51.382;-0.002;2023-02-28T02:36:08;2.70;91.00
46720;DHT22;32452;51.382;-0.002;2023-02-28T02:41:38;2.70;91.10
46720;DHT22;32452;51.382;-0.002;2023-02-28T02:44:40;2.70;91.20
46720;DHT22;32452;51.382;-0.002;2023-02-28T02:47:29;2.70;91.10
46720;DHT22;32452;51.382;-0.002;2023-02-28T02:50:22;2.60;91.20
46720;DHT22;32452;51.382;-0.002;2023-02-28T02:53:11;2.50;91.20
46720;DHT22;32452;51.382;-0.002;2023-02-28T02:55:58;2.50;91.20
46720;DHT22;32452;51.382;-0.002;2023-02-28T02:58:45;2.40;91.20
46720;DHT22;32452;51.382;-0.002;2023-02-28T03:01:34;2.40;91.30
46720;DHT22;32452;51.382;-0.002;2023-02-28T03:04:23;2.30;91.40
46720;DHT22;32452;51.382;-0.002;2023-02-28T03:07:09;2.20;91.50
46720;DHT22;32452;51.382;-0.002;2023-02-28T03:09:56;2.20;91.60
46720;DHT22;32452;51.382;-0.002;2023-02-28T03:12:51;2.10;91.70
46720;DHT22;32452;51.382;-0.002;2023-02-28T03:16:13;2.10;91.70
46720;DHT22;32452;51.382;-0.002;2023-02-28T03:19:11;2.00;91.80
46720;DHT22;32452;51.382;-0.002;2023-02-28T03:30:54;1.90;92.20
46720;DHT22;32452;51.382;-0.002;2023-02-28T03:33:47;1.80;92.30
46720;DHT22;32452;51.382;-0.002;2023-02-28T03:36:44;1.80;92.40
46720;DHT22;32452;51.382;-0.002;2023-02-28T03:39:43;1.80;92.50
46720;DHT22;32452;51.382;-0.002;2023-02-28T03:42:31;1.80;92.60
46720;DHT22;32452;51.382;-0.002;2023-02-28T03:45:25;1.80;92.80
46720;DHT22;32452;51.382;-0.002;2023-02-28T03:48:16;1.80;92.90
46720;DHT22;32452;51.382;-0.002;2023-02-28T03:51:03;1.70;92.90
46720;DHT22;32452;51.382;-0.002;2023-02-28T03:53:54;1.70;93.00
46720;DHT22;32452;51.382;-0.002;2023-02-28T03:56:53;1.70;93.10
46720;DHT22;32452;51.382;-0.002;2023-02-28T03:59:56;1.60;93.20
46720;DHT22;32452;51.382;-0.002;2023-02-28T04:02:44;1.60;93.40
46720;DHT22;32452;51.382;-0.002;2023-02-28T04:05:30;1.70;93.60
46720;DHT22;32452;51.382;-0.002;2023-02-28T04:08:16;1.60;93.60
46720;DHT22;32452;51.382;-0.002;2023-02-28T04:14:04;1.50;93.90
46720;DHT22;32452;51.382;-0.002;2023-02-28T04:16:50;1.50;94.10
46720;DHT22;32452;51.382;-0.002;2023-02-28T04:19:38;1.50;94.20
46720;DHT22;32452;51.382;-0.002;2023-02-28T04:22:24;1.40;94.20
46720;DHT22;32452;51.382;-0.002;2023-02-28T04:25:11;1.40;94.40
46720;DHT22;32452;51.382;-0.002;2023-02-28T04:27:57;1.40;94.50
46720;DHT22;32452;51.382;-0.002;2023-02-28T04:30:42;1.40;94.50
46720;DHT22;32452;51.382;-0.002;2023-02-28T04:33:28;1.40;94.60
46720;DHT22;32452;51.382;-0.002;2023-02-28T04:36:14;1.30;94.60
46720;DHT22;32452;51.382;-0.002;2023-02-28T04:38:59;1.30;94.70
46720;DHT22;32452;51.382;-0.002;2023-02-28T04:41:46;1.30;94.80
46720;DHT22;32452;51.382;-0.002;2023-02-28T04:44:31;1.30;94.90
46720;DHT22;32452;51.382;-0.002;2023-02-28T04:47:17;1.20;94.90
46720;DHT22;32452;51.382;-0.002;2023-02-28T04:50:02;1.20;95.00
46720;DHT22;32452;51.382;-0.002;2023-02-28T04:52:48;1.20;95.20
46720;DHT22;32452;51.382;-0.002;2023-02-28T04:55:34;1.20;95.20
46720;DHT22;32452;51.382;-0.002;2023-02-28T04:58:19;1.20;95.30
46720;DHT22;32452;51.382;-0.002;2023-02-28T05:01:21;1.20;95.40
46720;DHT22;32452;51.382;-0.002;2023-02-28T05:04:06;1.20;95.50
46720;DHT22;32452;51.382;-0.002;2023-02-28T05:06:53;1.10;95.50
46720;DHT22;32452;51.382;-0.002;2023-02-28T05:09:38;1.10;95.50
46720;DHT22;32452;51.382;-0.002;2023-02-28T05:12:24;1.10;95.60
46720;DHT22;32452;51.382;-0.002;2023-02-28T05:15:15;1.10;95.70
46720;DHT22;32452;51.382;-0.002;2023-02-28T05:18:00;1.10;95.80
46720;DHT22;32452;51.382;-0.002;2023-02-28T05:20:46;1.10;95.80
46720;DHT22;32452;51.382;-0.002;2023-02-28T05:23:31;1.00;95.90
46720;DHT22;32452;51.382;-0.002;2023-02-28T05:26:17;1.00;95.90
46720;DHT22;32452;51.382;-0.002;2023-02-28T05:29:03;1.00;96.00
46720;DHT22;32452;51.382;-0.002;2023-02-28T05:31:49;1.00;96.10
46720;DHT22;32452;51.382;-0.002;2023-02-28T05:34:36;1.00;96.10
46720;DHT22;32452;51.382;-0.002;2023-02-28T05:37:21;1.00;96.20
46720;DHT22;32452;51.382;-0.002;2023-02-28T05:40:08;1.00;96.20
46720;DHT22;32452;51.382;-0.002;2023-02-28T05:42:56;1.00;96.40
46720;DHT22;32452;51.382;-0.002;2023-02-28T05:45:42;1.00;96.60
46720;DHT22;32452;51.382;-0.002;2023-02-28T05:48:28;1.10;96.70
46720;DHT22;32452;51.382;-0.002;2023-02-28T05:51:13;1.10;96.80
46720;DHT22;32452;51.382;-0.002;2023-02-28T05:54:00;1.20;96.90
46720;DHT22;32452;51.382;-0.002;2023-02-28T05:56:46;1.20;97.10
46720;DHT22;32452;51.382;-0.002;2023-02-28T05:59:31;1.30;97.20
46720;DHT22;32452;51.382;-0.002;2023-02-28T06:02:17;1.30;97.20
46720;DHT22;32452;51.382;-0.002;2023-02-28T06:05:03;1.40;97.40
46720;DHT22;32452;51.382;-0.002;2023-02-28T06:07:48;1.40;97.60
46720;DHT22;32452;51.382;-0.002;2023-02-28T06:10:34;1.50;97.80
46720;DHT22;32452;51.382;-0.002;2023-02-28T06:13:20;1.60;98.00
46720;DHT22;32452;51.382;-0.002;2023-02-28T06:16:06;1.70;98.30
46720;DHT22;32452;51.382;-0.002;2023-02-28T06:18:52;1.80;98.50
46720;DHT22;32452;51.382;-0.002;2023-02-28T06:21:38;1.90;98.70
46720;DHT22;32452;51.382;-0.002;2023-02-28T06:24:25;2.00;99.30
46720;DHT22;32452;51.382;-0.002;2023-02-28T06:27:13;2.00;99.10
46720;DHT22;32452;51.382;-0.002;2023-02-28T06:29:59;2.10;99.30
46720;DHT22;32452;51.382;-0.002;2023-02-28T06:32:44;2.20;99.50
46720;DHT22;32452;51.382;-0.002;2023-02-28T06:35:30;2.20;99.70
46720;DHT22;32452;51.382;-0.002;2023-02-28T06:38:16;2.30;99.90
46720;DHT22;32452;51.382;-0.002;2023-02-28T06:41:02;2.30;99.90
46720;DHT22;32452;51.382;-0.002;2023-02-28T06:43:48;2.30;99.90
46720;DHT22;32452;51.382;-0.002;2023-02-28T06:46:33;2.40;99.90
46720;DHT22;32452;51.382;-0.002;2023-02-28T06:49:19;2.40;99.90
46720;DHT22;32452;51.382;-0.002;2023-02-28T06:52:04;2.40;99.90
46720;DHT22;32452;51.382;-0.002;2023-02-28T06:54:50;2.50;99.90
46720;DHT22;32452;51.382;-0.002;2023-02-28T06:57:45;2.50;99.90
46720;DHT22;32452;51.382;-0.002;2023-02-28T07:00:30;2.50;99.90
46720;DHT22;32452;51.382;-0.002;2023-02-28T07:03:16;2.50;99.90
46720;DHT22;32452;51.382;-0.002;2023-02-28T07:06:04;2.60;99.90
46720;DHT22;32452;51.382;-0.002;2023-02-28T07:08:50;2.60;99.90
46720;DHT22;32452;51.382;-0.002;2023-02-28T07:11:37;2.60;99.90
46720;DHT22;32452;51.382;-0.002;2023-02-28T07:14:22;2.70;99.90
46720;DHT22;32452;51.382;-0.002;2023-02-28T07:17:09;2.70;99.90
46720;DHT22;32452;51.382;-0.002;2023-02-28T07:19:56;2.70;99.90
46720;DHT22;32452;51.382;-0.002;2023-02-28T07:22:42;2.80;99.90
46720;DHT22;32452;51.382;-0.002;2023-02-28T07:25:28;2.90;99.90
46720;DHT22;32452;51.382;-0.002;2023-02-28T07:28:14;2.90;99.90
46720;DHT22;32452;51.382;-0.002;2023-02-28T07:31:06;3.00;99.90
46720;DHT22;32452;51.382;-0.002;2023-02-28T07:33:52;3.10;99.90
46720;DHT22;32452;51.382;-0.002;2023-02-28T07:36:39;3.10;99.90
46720;DHT22;32452;51.382;-0.002;2023-02-28T07:39:25;3.20;99.90
46720;DHT22;32452;51.382;-0.002;2023-02-28T07:42:11;3.30;99.90
46720;DHT22;32452;51.382;-0.002;2023-02-28T07:44:57;3.30;99.90
46720;DHT22;32452;51.382;-0.002;2023-02-28T07:47:44;3.40;99.90
46720;DHT22;32452;51.382;-0.002;2023-02-28T07:50:30;3.40;99.90
46720;DHT22;32452;51.382;-0.002;2023-02-28T07:53:16;3.50;99.90
46720;DHT22;32452;51.382;-0.002;2023-02-28T07:56:03;3.60;99.90
46720;DHT22;32452;51.382;-0.002;2023-02-28T07:58:48;3.60;99.90
46720;DHT22;32452;51.382;-0.002;2023-02-28T08:01:34;3.70;99.90
46720;DHT22;32452;51.382;-0.002;2023-02-28T08:04:20;3.70;99.90
46720;DHT22;32452;51.382;-0.002;2023-02-28T08:07:06;3.80;99.90
46720;DHT22;32452;51.382;-0.002;2023-02-28T08:09:51;3.90;99.90
46720;DHT22;32452;51.382;-0.002;2023-02-28T08:12:37;4.00;99.90
46720;DHT22;32452;51.382;-0.002;2023-02-28T08:15:22;4.10;99.90
46720;DHT22;32452;51.382;-0.002;2023-02-28T08:18:08;4.30;99.90
46720;DHT22;32452;51.382;-0.002;2023-02-28T08:20:53;4.60;99.90
46720;DHT22;32452;51.382;-0.002;2023-02-28T08:23:39;5.20;99.90
46720;DHT22;32452;51.382;-0.002;2023-02-28T08:26:25;5.40;99.90
46720;DHT22;32452;51.382;-0.002;2023-02-28T08:29:10;5.60;99.90
46720;DHT22;32452;51.382;-0.002;2023-02-28T08:31:56;5.80;99.90
46720;DHT22;32452;51.382;-0.002;2023-02-28T08:34:42;5.90;99.90
46720;DHT22;32452;51.382;-0.002;2023-02-28T08:37:28;6.10;99.90
46720;DHT22;32452;51.382;-0.002;2023-02-28T08:40:13;6.20;99.90
46720;DHT22;32452;51.382;-0.002;2023-02-28T08:43:03;6.20;99.90
46720;DHT22;32452;51.382;-0.002;2023-02-28T08:45:52;6.30;99.90
46720;DHT22;32452;51.382;-0.002;2023-02-28T08:48:37;6.40;99.70
46720;DHT22;32452;51.382;-0.002;2023-02-28T08:51:26;6.30;99.50
46720;DHT22;32452;51.382;-0.002;2023-02-28T08:54:12;6.40;99.50
46720;DHT22;32452;51.382;-0.002;2023-02-28T08:56:58;6.40;99.60
46720;DHT22;32452;51.382;-0.002;2023-02-28T08:59:43;6.40;99.00
46720;DHT22;32452;51.382;-0.002;2023-02-28T09:02:29;6.60;99.20
46720;DHT22;32452;51.382;-0.002;2023-02-28T09:05:14;6.80;98.80
46720;DHT22;32452;51.382;-0.002;2023-02-28T09:07:59;7.20;98.90
46720;DHT22;32452;51.382;-0.002;2023-02-28T09:10:45;7.80;98.50
46720;DHT22;32452;51.382;-0.002;2023-02-28T09:13:31;8.70;97.40
46720;DHT22;32452;51.382;-0.002;2023-02-28T09:16:17;9.40;96.10
46720;DHT22;32452;51.382;-0.002;2023-02-28T09:19:03;9.90;94.30
46720;DHT22;32452;51.382;-0.002;2023-02-28T09:21:48;9.90;92.60
46720;DHT22;32452;51.382;-0.002;2023-02-28T09:24:35;9.80;91.50
46720;DHT22;32452;51.382;-0.002;2023-02-28T09:27:21;9.70;90.90
46720;DHT22;32452;51.382;-0.002;2023-02-28T09:30:09;9.40;90.50
46720;DHT22;32452;51.382;-0.002;2023-02-28T09:32:55;9.10;90.30
46720;DHT22;32452;51.382;-0.002;2023-02-28T09:35:40;8.80;90.50
46720;DHT22;32452;51.382;-0.002;2023-02-28T09:38:26;8.50;90.50
46720;DHT22;32452;51.382;-0.002;2023-02-28T09:41:16;8.20;90.80
46720;DHT22;32452;51.382;-0.002;2023-02-28T09:44:03;8.00;91.00
46720;DHT22;32452;51.382;-0.002;2023-02-28T09:46:54;7.90;91.20
46720;DHT22;32452;51.382;-0.002;2023-02-28T09:49:44;7.80;91.40
46720;DHT22;32452;51.382;-0.002;2023-02-28T09:52:32;7.80;91.40
46720;DHT22;32452;51.382;-0.002;2023-02-28T09:58:14;7.50;91.40
46720;DHT22;32452;51.382;-0.002;2023-02-28T10:10:40;7.00;92.00
46720;DHT22;32452;51.382;-0.002;2023-02-28T10:16:15;6.80;92.30
46720;DHT22;32452;51.382;-0.002;2023-02-28T10:22:20;6.80;92.70
46720;DHT22;32452;51.382;-0.002;2023-02-28T10:25:18;6.80;92.90
46720;DHT22;32452;51.382;-0.002;2023-02-28T10:28:15;6.80;93.00
46720;DHT22;32452;51.382;-0.002;2023-02-28T10:31:03;6.90;93.00
46720;DHT22;32452;51.382;-0.002;2023-02-28T10:33:49;6.90;93.00
46720;DHT22;32452;51.382;-0.002;2023-02-28T10:36:35;7.00;93.10
46720;DHT22;32452;51.382;-0.002;2023-02-28T10:39:42;7.00;93.20
46720;DHT22;32452;51.382;-0.002;2023-02-28T10:42:29;7.10;93.20
46720;DHT22;32452;51.382;-0.002;2023-02-28T10:45:16;7.10;93.20
46720;DHT22;32452;51.382;-0.002;2023-02-28T10:51:01;7.00;93.20
46720;DHT22;32452;51.382;-0.002;2023-02-28T10:53:54;7.00;93.20
46720;DHT22;32452;51.382;-0.002;2023-02-28T10:57:06;7.10;93.30
46720;DHT22;32452;51.382;-0.002;2023-02-28T11:00:17;7.10;93.30
46720;DHT22;32452;51.382;-0.002;2023-02-28T11:02:59;7.00;93.20
46720;DHT22;32452;51.382;-0.002;2023-02-28T11:05:45;7.00;93.20
46720;DHT22;32452;51.382;-0.002;2023-02-28T11:08:31;7.00;93.30
46720;DHT22;32452;51.382;-0.002;2023-02-28T11:11:18;7.00;93.40
46720;DHT22;32452;51.382;-0.002;2023-02-28T11:14:05;6.90;93.50
46720;DHT22;32452;51.382;-0.002;2023-02-28T11:16:54;6.90;93.60
46720;DHT22;32452;51.382;-0.002;2023-02-28T11:19:45;6.90;93.80
46720;DHT22;32452;51.382;-0.002;2023-02-28T11:22:35;6.90;93.90
46720;DHT22;32452;51.382;-0.002;2023-02-28T11:25:26;6.90;94.10
46720;DHT22;32452;51.382;-0.002;2023-02-28T11:28:33;6.90;94.30
46720;DHT22;32452;51.382;-0.002;2023-02-28T11:31:19;6.90;94.50
46720;DHT22;32452;51.382;-0.002;2023-02-28T11:34:24;6.90;94.60
46720;DHT22;32452;51.382;-0.002;2023-02-28T11:37:19;6.90;94.80
46720;DHT22;32452;51.382;-0.002;2023-02-28T11:40:13;6.90;95.00
46720;DHT22;32452;51.382;-0.002;2023-02-28T11:43:07;6.90;95.10
46720;DHT22;32452;51.382;-0.002;2023-02-28T11:49:20;6.90;95.00
46720;DHT22;32452;51.382;-0.002;2023-02-28T11:52:47;6.90;95.10
46720;DHT22;32452;51.382;-0.002;2023-02-28T11:55:39;6.80;95.20
46720;DHT22;32452;51.382;-0.002;2023-02-28T12:10:21;6.80;95.80
46720;DHT22;32452;51.382;-0.002;2023-02-28T12:13:18;6.80;95.90
46720;DHT22;32452;51.382;-0.002;2023-02-28T12:19:58;6.90;96.20
46720;DHT22;32452;51.382;-0.002;2023-02-28T12:29:30;7.20;96.40
46720;DHT22;32452;51.382;-0.002;2023-02-28T12:32:42;7.20;96.30
46720;DHT22;32452;51.382;-0.002;2023-02-28T12:35:48;7.20;96.30
46720;DHT22;32452;51.382;-0.002;2023-02-28T12:38:39;7.20;96.40
46720;DHT22;32452;51.382;-0.002;2023-02-28T12:41:42;7.20;96.50
46720;DHT22;32452;51.382;-0.002;2023-02-28T12:44:43;7.20;96.60
46720;DHT22;32452;51.382;-0.002;2023-02-28T12:47:30;7.20;96.60
46720;DHT22;32452;51.382;-0.002;2023-02-28T12:50:16;7.20;96.60
46720;DHT22;32452;51.382;-0.002;2023-02-28T12:56:27;7.20;96.80
46720;DHT22;32452;51.382;-0.002;2023-02-28T12:59:27;7.20;96.80
46720;DHT22;32452;51.382;-0.002;2023-02-28T13:02:41;7.20;96.70
46720;DHT22;32452;51.382;-0.002;2023-02-28T13:05:37;7.20;96.70
46720;DHT22;32452;51.382;-0.002;2023-02-28T13:11:50;7.20;96.70
46720;DHT22;32452;51.382;-0.002;2023-02-28T13:14:38;7.20;96.80
46720;DHT22;32452;51.382;-0.002;2023-02-28T13:17:24;7.20;96.80
46720;DHT22;32452;51.382;-0.002;2023-02-28T13:20:21;7.20;96.90
46720;DHT22;32452;51.382;-0.002;2023-02-28T13:29:30;7.20;97.10
46720;DHT22;32452;51.382;-0.002;2023-02-28T13:35:13;7.20;97.30
46720;DHT22;32452;51.382;-0.002;2023-02-28T13:38:15;7.10;97.30
46720;DHT22;32452;51.382;-0.002;2023-02-28T13:44:20;7.10;97.50
46720;DHT22;32452;51.382;-0.002;2023-02-28T13:47:23;7.10;97.50
46720;DHT22;32452;51.382;-0.002;2023-02-28T13:53:22;7.20;97.70
46720;DHT22;32452;51.382;-0.002;2023-02-28T13:56:30;7.20;97.70
46720;DHT22;32452;51.382;-0.002;2023-02-28T13:59:37;7.20;97.90
46720;DHT22;32452;51.382;-0.002;2023-02-28T14:05:29;7.20;97.90
46720;DHT22;32452;51.382;-0.002;2023-02-28T14:08:20;7.20;97.90
46720;DHT22;32452;51.382;-0.002;2023-02-28T14:11:25;7.20;98.00
46720;DHT22;32452;51.382;-0.002;2023-02-28T14:14:53;7.20;98.20
46720;DHT22;32452;51.382;-0.002;2023-02-28T14:17:38;7.20;98.20
46720;DHT22;32452;51.382;-0.002;2023-02-28T14:20:30;7.20;98.30
46720;DHT22;32452;51.382;-0.002;2023-02-28T14:32:41;7.20;98.80
46720;DHT22;32452;51.382;-0.002;2023-02-28T14:35:53;7.20;98.90
46720;DHT22;32452;51.382;-0.002;2023-02-28T14:38:53;7.20;99.10
46720;DHT22;32452;51.382;-0.002;2023-02-28T14:41:42;7.20;99.20
46720;DHT22;32452;51.382;-0.002;2023-02-28T14:44:27;7.20;99.20
46720;DHT22;32452;51.382;-0.002;2023-02-28T14:47:15;7.30;99.30
46720;DHT22;32452;51.382;-0.002;2023-02-28T14:50:03;7.30;99.30
46720;DHT22;32452;51.382;-0.002;2023-02-28T14:52:53;7.30;99.30
46720;DHT22;32452;51.382;-0.002;2023-02-28T14:55:44;7.30;99.30
46720;DHT22;32452;51.382;-0.002;2023-02-28T14:58:32;7.30;99.30
46720;DHT22;32452;51.382;-0.002;2023-02-28T15:01:21;7.30;99.30
46720;DHT22;32452;51.382;-0.002;2023-02-28T15:04:25;7.30;99.30
46720;DHT22;32452;51.382;-0.002;2023-02-28T15:07:15;7.30;99.30
46720;DHT22;32452;51.382;-0.002;2023-02-28T15:10:26;7.30;99.20
46720;DHT22;32452;51.382;-0.002;2023-02-28T15:13:14;7.30;99.20
46720;DHT22;32452;51.382;-0.002;2023-02-28T15:16:06;7.30;99.10
46720;DHT22;32452;51.382;-0.002;2023-02-28T15:19:19;7.30;99.20
46720;DHT22;32452;51.382;-0.002;2023-02-28T15:22:11;7.30;99.10
46720;DHT22;32452;51.382;-0.002;2023-02-28T15:24:58;7.30;99.10
46720;DHT22;32452;51.382;-0.002;2023-02-28T15:27:48;7.30;99.10
46720;DHT22;32452;51.382;-0.002;2023-02-28T15:30:34;7.30;99.10
46720;DHT22;32452;51.382;-0.002;2023-02-28T15:33:23;7.30;99.10
46720;DHT22;32452;51.382;-0.002;2023-02-28T15:36:17;7.30;99.30
46720;DHT22;32452;51.382;-0.002;2023-02-28T15:39:24;7.30;99.50
46720;DHT22;32452;51.382;-0.002;2023-02-28T15:42:20;7.30;99.60
46720;DHT22;32452;51.382;-0.002;2023-02-28T15:45:25;7.30;99.80
46720;DHT22;32452;51.382;-0.002;2023-02-28T15:48:23;7.30;99.90
46720;DHT22;32452;51.382;-0.002;2023-02-28T15:51:45;7.30;99.90
46720;DHT22;32452;51.382;-0.002;2023-02-28T15:54:33;7.30;99.90
46720;DHT22;32452;51.382;-0.002;2023-02-28T15:57:23;7.30;99.90
46720;DHT22;32452;51.382;-0.002;2023-02-28T16:00:13;7.30;99.90
46720;DHT22;32452;51.382;-0.002;2023-02-28T16:02:59;7.30;99.90
46720;DHT22;32452;51.382;-0.002;2023-02-28T16:05:45;7.30;99.90
46720;DHT22;32452;51.382;-0.002;2023-02-28T16:08:31;7.30;99.90
46720;DHT22;32452;51.382;-0.002;2023-02-28T16:11:16;7.30;99.90
46720;DHT22;32452;51.382;-0.002;2023-02-28T16:14:02;7.30;99.90
46720;DHT22;32452;51.382;-0.002;2023-02-28T16:16:50;7.30;99.90
46720;DHT22;32452;51.382;-0.002;2023-02-28T16:19:37;7.30;99.90
46720;DHT22;32452;51.382;-0.002;2023-02-28T16:22:23;7.30;99.90
46720;DHT22;32452;51.382;-0.002;2023-02-28T16:25:16;7.30;99.90
46720;DHT22;32452;51.382;-0.002;2023-02-28T16:28:02;7.30;99.90
46720;DHT22;32452;51.382;-0.002;2023-02-28T16:30:51;7.30;99.90
46720;DHT22;32452;51.382;-0.002;2023-02-28T16:33:36;7.30;99.90
46720;DHT22;32452;51.382;-0.002;2023-02-28T16:36:23;7.20;99.90
46720;DHT22;32452;51.382;-0.002;2023-02-28T16:39:13;7.20;99.90
46720;DHT22;32452;51.382;-0.002;2023-02-28T16:41:58;7.20;99.90
46720;DHT22;32452;51.382;-0.002;2023-02-28T16:44:44;7.20;99.90
46720;DHT22;32452;51.382;-0.002;2023-02-28T16:47:31;7.20;99.90
46720;DHT22;32452;51.382;-0.002;2023-02-28T16:50:20;7.20;99.90
46720;DHT22;32452;51.382;-0.002;2023-02-28T16:53:06;7.20;99.90
46720;DHT22;32452;51.382;-0.002;2023-02-28T16:55:52;7.20;99.90
46720;DHT22;32452;51.382;-0.002;2023-02-28T16:58:37;7.20;99.90
46720;DHT22;32452;51.382;-0.002;2023-02-28T17:02:00;7.20;99.90
46720;DHT22;32452;51.382;-0.002;2023-02-28T17:04:49;7.20;99.90
46720;DHT22;32452;51.382;-0.002;2023-02-28T17:07:34;7.20;99.90
46720;DHT22;32452;51.382;-0.002;2023-02-28T17:10:24;7.20;99.90
46720;DHT22;32452;51.382;-0.002;2023-02-28T17:13:30;7.20;99.90
46720;DHT22;32452;51.382;-0.002;2023-02-28T17:16:33;7.20;99.90
46720;DHT22;32452;51.382;-0.002;2023-02-28T17:19:20;7.20;99.90
46720;DHT22;32452;51.382;-0.002;2023-02-28T17:22:08;7.20;99.90
46720;DHT22;32452;51.382;-0.002;2023-02-28T17:24:53;7.20;99.90
46720;DHT22;32452;51.382;-0.002;2023-02-28T17:27:43;7.20;99.90
46720;DHT22;32452;51.382;-0.002;2023-02-28T17:30:29;7.10;99.90
46720;DHT22;32452;51.382;-0.002;2023-02-28T17:33:15;7.10;99.90
46720;DHT22;32452;51.382;-0.002;2023-02-28T17:36:01;7.10;99.90
46720;DHT22;32452;51.382;-0.002;2023-02-28T17:38:46;7.00;99.90
46720;DHT22;32452;51.382;-0.002;2023-02-28T17:41:32;7.00;99.90
46720;DHT22;32452;51.382;-0.002;2023-02-28T17:44:19;7.00;99.90
46720;DHT22;32452;51.382;-0.002;2023-02-28T17:47:05;7.00;99.90
46720;DHT22;32452;51.382;-0.002;2023-02-28T17:49:50;7.00;99.90
46720;DHT22;32452;51.382;-0.002;2023-02-28T17:52:36;7.00;99.90
46720;DHT22;32452;51.382;-0.002;2023-02-28T17:55:22;7.00;99.90
46720;DHT22;32452;51.382;-0.002;2023-02-28T17:58:10;7.00;99.90
46720;DHT22;32452;51.382;-0.002;2023-02-28T18:00:57;7.00;99.90
46720;DHT22;32452;51.382;-0.002;2023-02-28T18:03:42;7.00;99.80
46720;DHT22;32452;51.382;-0.002;2023-02-28T18:06:37;7.10;99.80
46720;DHT22;32452;51.382;-0.002;2023-02-28T18:09:31;7.00;99.70
46720;DHT22;32452;51.382;-0.002;2023-02-28T18:12:17;7.00;99.70
46720;DHT22;32452;51.382;-0.002;2023-02-28T18:15:03;7.00;99.60
46720;DHT22;32452;51.382;-0.002;2023-02-28T18:17:49;7.00;99.60
46720;DHT22;32452;51.382;-0.002;2023-02-28T18:20:35;7.00;99.60
46720;DHT22;32452;51.382;-0.002;2023-02-28T18:23:21;7.00;99.70
46720;DHT22;32452;51.382;-0.002;2023-02-28T18:26:07;7.00;99.60
46720;DHT22;32452;51.382;-0.002;2023-02-28T18:28:53;7.00;99.70
46720;DHT22;32452;51.382;-0.002;2023-02-28T18:31:39;7.00;99.60
46720;DHT22;32452;51.382;-0.002;2023-02-28T18:34:25;7.10;99.70
46720;DHT22;32452;51.382;-0.002;2023-02-28T18:37:10;7.00;99.70
46720;DHT22;32452;51.382;-0.002;2023-02-28T18:39:56;7.00;99.70
46720;DHT22;32452;51.382;-0.002;2023-02-28T18:42:42;7.00;99.70
46720;DHT22;32452;51.382;-0.002;2023-02-28T18:45:27;7.10;99.80
46720;DHT22;32452;51.382;-0.002;2023-02-28T18:48:16;7.00;99.70
46720;DHT22;32452;51.382;-0.002;2023-02-28T18:51:08;7.00;99.70
46720;DHT22;32452;51.382;-0.002;2023-02-28T18:53:54;7.10;99.70
46720;DHT22;32452;51.382;-0.002;2023-02-28T18:56:46;7.00;99.70
46720;DHT22;32452;51.382;-0.002;2023-02-28T18:59:32;7.00;99.70
46720;DHT22;32452;51.382;-0.002;2023-02-28T19:02:18;7.00;99.60
46720;DHT22;32452;51.382;-0.002;2023-02-28T19:05:04;7.00;99.60
46720;DHT22;32452;51.382;-0.002;2023-02-28T19:07:53;7.00;99.60
46720;DHT22;32452;51.382;-0.002;2023-02-28T19:10:41;7.00;99.50
46720;DHT22;32452;51.382;-0.002;2023-02-28T19:13:26;7.00;99.50
46720;DHT22;32452;51.382;-0.002;2023-02-28T19:16:17;7.00;99.40
46720;DHT22;32452;51.382;-0.002;2023-02-28T19:19:03;7.00;99.40
46720;DHT22;32452;51.382;-0.002;2023-02-28T19:21:48;7.00;99.30
46720;DHT22;32452;51.382;-0.002;2023-02-28T19:24:34;7.00;99.20
46720;DHT22;32452;51.382;-0.002;2023-02-28T19:27:19;7.00;99.20
46720;DHT22;32452;51.382;-0.002;2023-02-28T19:30:05;7.00;99.10
46720;DHT22;32452;51.382;-0.002;2023-02-28T19:32:51;7.00;99.00
46720;DHT22;32452;51.382;-0.002;2023-02-28T19:35:39;6.90;99.00
46720;DHT22;32452;51.382;-0.002;2023-02-28T19:38:25;6.90;99.00